sensor_id;sensor_type;location;lat;lon;timestamp;temperature;humidity
4960;DHT22;2495;48.200;11.532;2022-09-09T00:04:20;19.70;67.40
4960;DHT22;2495;48.200;11.532;2022-09-09T00:09:22;19.60;68.20
4960;DHT22;2495;48.200;11.532;2022-09-09T00:14:45;19.60;68.60
4960;DHT22;2495;48.200;11.532;2022-09-09T00:19:52;19.60;68.70
4960;DHT22;2495;48.200;11.532;2022-09-09T00:24:53;19.60;68.80
4960;DHT22;2495;48.200;11.532;2022-09-09T00:29:56;19.60;68.60
4960;DHT22;2495;48.200;11.532;2022-09-09T00:34:57;19.60;68.80
4960;DHT22;2495;48.200;11.532;2022-09-09T00:40:05;19.60;69.30
4960;DHT22;2495;48.200;11.532;2022-09-09T00:45:17;19.50;69.40
4960;DHT22;2495;48.200;11.532;2022-09-09T00:50:33;19.50;70.60
4960;DHT22;2495;48.200;11.532;2022-09-09T01:01:16;19.40;70.60
4960;DHT22;2495;48.200;11.532;2022-09-09T01:17:23;19.10;71.30
4960;DHT22;2495;48.200;11.532;2022-09-09T01:22:50;19.00;71.70
4960;DHT22;2495;48.200;11.532;2022-09-09T01:27:52;18.90;71.90
4960;DHT22;2495;48.200;11.532;2022-09-09T01:32:54;18.90;72.10
4960;DHT22;2495;48.200;11.532;2022-09-09T01:37:54;18.90;72.00
4960;DHT22;2495;48.200;11.532;2022-09-09T01:42:56;18.90;72.20
4960;DHT22;2495;48.200;11.532;2022-09-09T01:47:57;19.00;72.60
4960;DHT22;2495;48.200;11.532;2022-09-09T01:52:59;18.90;72.50
4960;DHT22;2495;48.200;11.532;2022-09-09T02:03:22;18.80;73.20
4960;DHT22;2495;48.200;11.532;2022-09-09T02:08:26;18.80;72.90
4960;DHT22;2495;48.200;11.532;2022-09-09T02:13:25;18.80;72.70
4960;DHT22;2495;48.200;11.532;2022-09-09T02:18:30;18.70;72.50
4960;DHT22;2495;48.200;11.532;2022-09-09T02:23:30;18.70;73.00
4960;DHT22;2495;48.200;11.532;2022-09-09T02:28:32;18.70;73.00
4960;DHT22;2495;48.200;11.532;2022-09-09T02:33:35;18.90;73.80
4960;DHT22;2495;48.200;11.532;2022-09-09T02:38:36;19.00;72.80
4960;DHT22;2495;48.200;11.532;2022-09-09T02:43:36;19.00;72.80
4960;DHT22;2495;48.200;11.532;2022-09-09T02:49:06;18.90;72.10
4960;DHT22;2495;48.200;11.532;2022-09-09T02:59:20;18.70;73.10
4960;DHT22;2495;48.200;11.532;2022-09-09T03:04:21;18.60;73.20
4960;DHT22;2495;48.200;11.532;2022-09-09T03:09:22;18.60;73.40
4960;DHT22;2495;48.200;11.532;2022-09-09T03:14:24;18.60;73.40
4960;DHT22;2495;48.200;11.532;2022-09-09T03:19:27;18.60;73.50
4960;DHT22;2495;48.200;11.532;2022-09-09T03:24:29;18.60;73.30
4960;DHT22;2495;48.200;11.532;2022-09-09T03:29:30;18.60;73.30
4960;DHT22;2495;48.200;11.532;2022-09-09T03:34:31;18.60;73.30
4960;DHT22;2495;48.200;11.532;2022-09-09T03:39:36;18.60;73.40
4960;DHT22;2495;48.200;11.532;2022-09-09T03:44:37;18.60;73.70
4960;DHT22;2495;48.200;11.532;2022-09-09T03:49:38;18.60;73.40
4960;DHT22;2495;48.200;11.532;2022-09-09T03:54:40;18.60;73.40
4960;DHT22;2495;48.200;11.532;2022-09-09T03:59:41;18.60;73.50
4960;DHT22;2495;48.200;11.532;2022-09-09T04:04:43;18.60;73.60
4960;DHT22;2495;48.200;11.532;2022-09-09T04:09:44;18.60;73.60
4960;DHT22;2495;48.200;11.532;2022-09-09T04:14:45;18.60;73.80
4960;DHT22;2495;48.200;11.532;2022-09-09T04:19:47;18.70;73.70
4960;DHT22;2495;48.200;11.532;2022-09-09T04:24:48;18.70;73.80
4960;DHT22;2495;48.200;11.532;2022-09-09T04:29:49;18.70;73.60
4960;DHT22;2495;48.200;11.532;2022-09-09T04:34:51;18.70;73.40
4960;DHT22;2495;48.200;11.532;2022-09-09T04:39:52;18.70;73.10
4960;DHT22;2495;48.200;11.532;2022-09-09T04:44:54;18.70;73.20
4960;DHT22;2495;48.200;11.532;2022-09-09T04:49:56;18.70;72.90
4960;DHT22;2495;48.200;11.532;2022-09-09T04:55:00;18.60;72.70
4960;DHT22;2495;48.200;11.532;2022-09-09T05:00:02;18.60;74.20
4960;DHT22;2495;48.200;11.532;2022-09-09T05:05:04;18.60;74.20
4960;DHT22;2495;48.200;11.532;2022-09-09T05:10:05;18.50;73.60
4960;DHT22;2495;48.200;11.532;2022-09-09T05:15:07;18.50;73.80
4960;DHT22;2495;48.200;11.532;2022-09-09T05:20:09;18.60;74.50
4960;DHT22;2495;48.200;11.532;2022-09-09T05:25:11;18.50;73.90
4960;DHT22;2495;48.200;11.532;2022-09-09T05:30:12;18.50;73.50
4960;DHT22;2495;48.200;11.532;2022-09-09T05:35:14;18.50;73.60
4960;DHT22;2495;48.200;11.532;2022-09-09T05:40:22;18.50;74.00
4960;DHT22;2495;48.200;11.532;2022-09-09T05:45:20;18.50;74.20
4960;DHT22;2495;48.200;11.532;2022-09-09T05:50:22;18.60;73.80
4960;DHT22;2495;48.200;11.532;2022-09-09T05:55:23;18.70;74.30
4960;DHT22;2495;48.200;11.532;2022-09-09T06:00:25;18.60;75.40
4960;DHT22;2495;48.200;11.532;2022-09-09T06:05:26;18.60;74.70
4960;DHT22;2495;48.200;11.532;2022-09-09T06:10:28;18.80;74.50
4960;DHT22;2495;48.200;11.532;2022-09-09T06:15:29;18.70;74.50
4960;DHT22;2495;48.200;11.532;2022-09-09T06:20:42;18.80;74.80
4960;DHT22;2495;48.200;11.532;2022-09-09T06:25:44;18.80;74.70
4960;DHT22;2495;48.200;11.532;2022-09-09T06:30:45;18.80;74.20
4960;DHT22;2495;48.200;11.532;2022-09-09T06:35:53;18.90;74.20
4960;DHT22;2495;48.200;11.532;2022-09-09T06:40:54;18.90;75.20
4960;DHT22;2495;48.200;11.532;2022-09-09T06:45:56;18.90;74.30
4960;DHT22;2495;48.200;11.532;2022-09-09T06:51:09;19.00;74.80
4960;DHT22;2495;48.200;11.532;2022-09-09T07:01:18;19.10;74.50
4960;DHT22;2495;48.200;11.532;2022-09-09T07:06:31;19.20;74.30
4960;DHT22;2495;48.200;11.532;2022-09-09T07:11:34;19.30;74.40
4960;DHT22;2495;48.200;11.532;2022-09-09T07:16:33;19.30;73.50
4960;DHT22;2495;48.200;11.532;2022-09-09T07:21:34;19.30;73.70
4960;DHT22;2495;48.200;11.532;2022-09-09T07:26:36;19.20;73.50
4960;DHT22;2495;48.200;11.532;2022-09-09T07:31:38;19.10;74.70
4960;DHT22;2495;48.200;11.532;2022-09-09T07:36:39;19.20;74.60
4960;DHT22;2495;48.200;11.532;2022-09-09T07:41:41;19.40;75.40
4960;DHT22;2495;48.200;11.532;2022-09-09T07:46:42;19.50;75.10
4960;DHT22;2495;48.200;11.532;2022-09-09T07:51:44;19.60;74.80
4960;DHT22;2495;48.200;11.532;2022-09-09T07:56:45;19.60;75.10
4960;DHT22;2495;48.200;11.532;2022-09-09T08:01:50;19.50;75.20
4960;DHT22;2495;48.200;11.532;2022-09-09T08:06:55;19.60;75.40
4960;DHT22;2495;48.200;11.532;2022-09-09T08:12:01;19.80;76.00
4960;DHT22;2495;48.200;11.532;2022-09-09T08:17:03;20.00;75.20
4960;DHT22;2495;48.200;11.532;2022-09-09T08:22:05;20.20;74.90
4960;DHT22;2495;48.200;11.532;2022-09-09T08:27:07;20.20;75.10
4960;DHT22;2495;48.200;11.532;2022-09-09T08:32:11;20.20;74.80
4960;DHT22;2495;48.200;11.532;2022-09-09T08:37:12;20.00;74.80
4960;DHT22;2495;48.200;11.532;2022-09-09T08:42:23;20.00;76.20
4960;DHT22;2495;48.200;11.532;2022-09-09T08:53:16;20.30;77.20
4960;DHT22;2495;48.200;11.532;2022-09-09T08:58:34;20.30;77.00
4960;DHT22;2495;48.200;11.532;2022-09-09T09:09:24;20.30;76.90
4960;DHT22;2495;48.200;11.532;2022-09-09T09:14:25;20.40;76.90
4960;DHT22;2495;48.200;11.532;2022-09-09T09:19:27;20.60;75.30
4960;DHT22;2495;48.200;11.532;2022-09-09T09:29:47;21.10;75.40
4960;DHT22;2495;48.200;11.532;2022-09-09T09:34:53;21.40;74.30
4960;DHT22;2495;48.200;11.532;2022-09-09T09:39:53;21.70;74.20
4960;DHT22;2495;48.200;11.532;2022-09-09T09:44:54;21.60;73.90
4960;DHT22;2495;48.200;11.532;2022-09-09T09:49:59;21.40;73.50
4960;DHT22;2495;48.200;11.532;2022-09-09T09:55:02;21.30;74.80
4960;DHT22;2495;48.200;11.532;2022-09-09T10:00:19;21.40;75.10
4960;DHT22;2495;48.200;11.532;2022-09-09T10:05:23;21.40;75.20
4960;DHT22;2495;48.200;11.532;2022-09-09T10:10:25;21.20;74.50
4960;DHT22;2495;48.200;11.532;2022-09-09T10:15:34;21.00;73.30
4960;DHT22;2495;48.200;11.532;2022-09-09T10:20:54;21.20;75.90
4960;DHT22;2495;48.200;11.532;2022-09-09T10:36:25;21.30;73.50
4960;DHT22;2495;48.200;11.532;2022-09-09T11:04:10;22.00;71.20
4960;DHT22;2495;48.200;11.532;2022-09-09T11:09:08;22.10;70.90
4960;DHT22;2495;48.200;11.532;2022-09-09T11:19:30;23.00;69.00
4960;DHT22;2495;48.200;11.532;2022-09-09T11:24:37;23.60;66.80
4960;DHT22;2495;48.200;11.532;2022-09-09T11:30:20;23.80;66.40
4960;DHT22;2495;48.200;11.532;2022-09-09T11:41:03;24.10;63.90
4960;DHT22;2495;48.200;11.532;2022-09-09T11:46:07;23.60;64.70
4960;DHT22;2495;48.200;11.532;2022-09-09T11:51:10;23.60;64.10
4960;DHT22;2495;48.200;11.532;2022-09-09T11:56:11;23.90;61.90
4960;DHT22;2495;48.200;11.532;2022-09-09T12:01:28;23.70;61.40
4960;DHT22;2495;48.200;11.532;2022-09-09T12:06:32;23.30;63.20
4960;DHT22;2495;48.200;11.532;2022-09-09T12:11:33;23.40;63.20
4960;DHT22;2495;48.200;11.532;2022-09-09T12:16:35;24.20;60.60
4960;DHT22;2495;48.200;11.532;2022-09-09T12:54:55;23.50;62.70
4960;DHT22;2495;48.200;11.532;2022-09-09T13:00:04;23.60;62.30
4960;DHT22;2495;48.200;11.532;2022-09-09T13:05:06;23.50;62.50
4960;DHT22;2495;48.200;11.532;2022-09-09T13:09:59;23.40;62.30
4960;DHT22;2495;48.200;11.532;2022-09-09T13:15:00;23.30;62.50
4960;DHT22;2495;48.200;11.532;2022-09-09T13:20:02;23.30;62.50
4960;DHT22;2495;48.200;11.532;2022-09-09T13:25:18;23.30;62.50
4960;DHT22;2495;48.200;11.532;2022-09-09T13:30:19;23.40;62.30
4960;DHT22;2495;48.200;11.532;2022-09-09T13:35:22;23.50;62.30
4960;DHT22;2495;48.200;11.532;2022-09-09T13:40:22;23.70;62.00
4960;DHT22;2495;48.200;11.532;2022-09-09T13:45:24;23.70;62.00
4960;DHT22;2495;48.200;11.532;2022-09-09T13:50:28;23.70;61.90
4960;DHT22;2495;48.200;11.532;2022-09-09T13:55:29;23.70;61.50
4960;DHT22;2495;48.200;11.532;2022-09-09T14:00:31;23.40;61.60
4960;DHT22;2495;48.200;11.532;2022-09-09T14:05:32;23.20;62.10
4960;DHT22;2495;48.200;11.532;2022-09-09T14:10:43;22.80;62.40
4960;DHT22;2495;48.200;11.532;2022-09-09T14:15:44;22.60;62.00
4960;DHT22;2495;48.200;11.532;2022-09-09T14:20:46;22.50;62.40
4960;DHT22;2495;48.200;11.532;2022-09-09T14:25:47;22.40;62.30
4960;DHT22;2495;48.200;11.532;2022-09-09T14:31:08;22.30;62.40
4960;DHT22;2495;48.200;11.532;2022-09-09T14:36:30;22.50;64.00
4960;DHT22;2495;48.200;11.532;2022-09-09T14:47:31;22.40;63.20
4960;DHT22;2495;48.200;11.532;2022-09-09T14:59:10;22.30;64.70
4960;DHT22;2495;48.200;11.532;2022-09-09T15:04:31;22.30;63.50
4960;DHT22;2495;48.200;11.532;2022-09-09T15:09:40;22.10;63.20
4960;DHT22;2495;48.200;11.532;2022-09-09T15:14:42;21.90;64.40
4960;DHT22;2495;48.200;11.532;2022-09-09T15:36:28;22.30;63.20
4960;DHT22;2495;48.200;11.532;2022-09-09T15:42:18;22.30;62.50
4960;DHT22;2495;48.200;11.532;2022-09-09T16:45:05;21.70;62.00
4960;DHT22;2495;48.200;11.532;2022-09-09T16:50:13;21.70;62.00
4960;DHT22;2495;48.200;11.532;2022-09-09T17:07:12;21.80;61.10
4960;DHT22;2495;48.200;11.532;2022-09-09T17:12:13;21.50;60.40
4960;DHT22;2495;48.200;11.532;2022-09-09T17:17:14;21.30;61.70
4960;DHT22;2495;48.200;11.532;2022-09-09T17:22:16;21.30;61.40
4960;DHT22;2495;48.200;11.532;2022-09-09T17:27:17;21.20;61.40
4960;DHT22;2495;48.200;11.532;2022-09-09T17:32:18;21.00;61.70
4960;DHT22;2495;48.200;11.532;2022-09-09T17:37:19;20.80;62.00
4960;DHT22;2495;48.200;11.532;2022-09-09T17:42:20;20.70;62.30
4960;DHT22;2495;48.200;11.532;2022-09-09T17:47:22;20.60;62.60
4960;DHT22;2495;48.200;11.532;2022-09-09T17:52:23;20.40;63.30
4960;DHT22;2495;48.200;11.532;2022-09-09T17:57:24;20.30;63.80
4960;DHT22;2495;48.200;11.532;2022-09-09T18:02:25;20.20;64.30
4960;DHT22;2495;48.200;11.532;2022-09-09T18:07:27;20.10;64.60
4960;DHT22;2495;48.200;11.532;2022-09-09T18:12:28;20.10;64.80
4960;DHT22;2495;48.200;11.532;2022-09-09T18:17:29;20.00;65.20
4960;DHT22;2495;48.200;11.532;2022-09-09T18:22:30;20.00;65.40
4960;DHT22;2495;48.200;11.532;2022-09-09T18:27:31;19.90;65.80
4960;DHT22;2495;48.200;11.532;2022-09-09T18:32:41;19.80;66.30
4960;DHT22;2495;48.200;11.532;2022-09-09T18:37:41;19.80;66.50
4960;DHT22;2495;48.200;11.532;2022-09-09T18:42:45;19.80;66.10
4960;DHT22;2495;48.200;11.532;2022-09-09T18:47:46;19.70;66.40
4960;DHT22;2495;48.200;11.532;2022-09-09T18:52:49;19.70;67.10
4960;DHT22;2495;48.200;11.532;2022-09-09T18:57:52;19.70;66.30
4960;DHT22;2495;48.200;11.532;2022-09-09T19:02:53;19.70;66.40
4960;DHT22;2495;48.200;11.532;2022-09-09T19:07:55;19.60;66.20
4960;DHT22;2495;48.200;11.532;2022-09-09T19:12:58;19.60;66.30
4960;DHT22;2495;48.200;11.532;2022-09-09T19:18:00;19.70;66.50
4960;DHT22;2495;48.200;11.532;2022-09-09T19:23:32;19.70;66.60
4960;DHT22;2495;48.200;11.532;2022-09-09T19:46:18;19.20;70.10
4960;DHT22;2495;48.200;11.532;2022-09-09T19:51:20;19.00;69.80
4960;DHT22;2495;48.200;11.532;2022-09-09T19:56:21;19.00;70.40
4960;DHT22;2495;48.200;11.532;2022-09-09T20:01:26;18.90;70.60
4960;DHT22;2495;48.200;11.532;2022-09-09T20:06:30;18.80;71.20
4960;DHT22;2495;48.200;11.532;2022-09-09T20:11:31;18.60;71.40
4960;DHT22;2495;48.200;11.532;2022-09-09T20:16:34;18.60;71.10
4960;DHT22;2495;48.200;11.532;2022-09-09T20:21:34;18.50;71.30
4960;DHT22;2495;48.200;11.532;2022-09-09T20:26:35;18.40;71.20
4960;DHT22;2495;48.200;11.532;2022-09-09T20:31:36;18.50;72.10
4960;DHT22;2495;48.200;11.532;2022-09-09T20:36:37;18.60;71.60
4960;DHT22;2495;48.200;11.532;2022-09-09T20:41:39;18.60;71.30
4960;DHT22;2495;48.200;11.532;2022-09-09T20:46:41;18.40;71.90
4960;DHT22;2495;48.200;11.532;2022-09-09T20:51:42;18.30;71.80
4960;DHT22;2495;48.200;11.532;2022-09-09T20:56:43;18.40;72.90
4960;DHT22;2495;48.200;11.532;2022-09-09T21:01:44;18.60;72.30
4960;DHT22;2495;48.200;11.532;2022-09-09T21:06:45;18.50;71.90
4960;DHT22;2495;48.200;11.532;2022-09-09T21:11:46;18.50;72.10
4960;DHT22;2495;48.200;11.532;2022-09-09T21:16:48;18.40;71.70
4960;DHT22;2495;48.200;11.532;2022-09-09T21:21:49;18.40;71.70
4960;DHT22;2495;48.200;11.532;2022-09-09T21:26:50;18.40;71.70
4960;DHT22;2495;48.200;11.532;2022-09-09T21:31:51;18.40;71.70
4960;DHT22;2495;48.200;11.532;2022-09-09T21:36:53;18.40;71.70
4960;DHT22;2495;48.200;11.532;2022-09-09T21:41:54;18.30;71.90
4960;DHT22;2495;48.200;11.532;2022-09-09T21:46:55;18.50;72.90
4960;DHT22;2495;48.200;11.532;2022-09-09T21:51:57;18.60;72.10
4960;DHT22;2495;48.200;11.532;2022-09-09T21:57:02;18.50;71.80
4960;DHT22;2495;48.200;11.532;2022-09-09T22:02:00;18.40;72.00
4960;DHT22;2495;48.200;11.532;2022-09-09T22:07:02;18.30;72.80
4960;DHT22;2495;48.200;11.532;2022-09-09T22:12:03;18.20;72.30
4960;DHT22;2495;48.200;11.532;2022-09-09T22:17:05;18.10;73.00
4960;DHT22;2495;48.200;11.532;2022-09-09T22:22:06;18.10;73.50
4960;DHT22;2495;48.200;11.532;2022-09-09T22:27:29;18.00;73.80
4960;DHT22;2495;48.200;11.532;2022-09-09T22:32:30;17.90;73.60
4960;DHT22;2495;48.200;11.532;2022-09-09T22:37:31;17.90;76.40
4960;DHT22;2495;48.200;11.532;2022-09-09T22:42:33;18.00;74.40
4960;DHT22;2495;48.200;11.532;2022-09-09T22:47:35;18.00;74.30
4960;DHT22;2495;48.200;11.532;2022-09-09T22:52:39;17.90;73.90
4960;DHT22;2495;48.200;11.532;2022-09-09T22:57:40;17.90;74.00
4960;DHT22;2495;48.200;11.532;2022-09-09T23:02:42;17.70;74.20
4960;DHT22;2495;48.200;11.532;2022-09-09T23:07:46;17.60;74.30
4960;DHT22;2495;48.200;11.532;2022-09-09T23:12:47;17.50;75.50
4960;DHT22;2495;48.200;11.532;2022-09-09T23:17:52;17.50;76.30
4960;DHT22;2495;48.200;11.532;2022-09-09T23:22:53;17.60;75.10
4960;DHT22;2495;48.200;11.532;2022-09-09T23:27:59;17.50;74.70
4960;DHT22;2495;48.200;11.532;2022-09-09T23:33:00;17.30;75.50
4960;DHT22;2495;48.200;11.532;2022-09-09T23:38:01;17.20;75.50
4960;DHT22;2495;48.200;11.532;2022-09-09T23:43:03;17.20;76.90
4960;DHT22;2495;48.200;11.532;2022-09-09T23:48:08;17.30;76.00
4960;DHT22;2495;48.200;11.532;2022-09-09T23:53:12;17.10;75.80
4960;DHT22;2495;48.200;11.532;2022-09-09T23:58:17;17.00;77.50
